createdAt,value
2019-04-25T07:27:40.262Z,40.19
2019-04-25T07:30:07.721Z,40.84
2019-04-25T07:32:38.887Z,40.57
2019-04-25T07:35:13.525Z,40.53
2019-04-25T07:37:44.109Z,40.33
2019-04-25T07:40:13.804Z,40.39
2019-04-25T07:42:40.365Z,40.20
2019-04-25T07:45:07.829Z,40.12
2019-04-25T07:47:41.359Z,40.12
2019-04-25T07:50:15.579Z,40.19
2019-04-25T07:52:46.171Z,40.18
2019-04-25T07:55:31.078Z,40.21
2019-04-25T07:58:03.175Z,40.08
2019-04-25T08:03:15.406Z,39.30
2019-04-25T08:05:43.913Z,40.11
2019-04-25T08:08:11.419Z,39.94
2019-04-25T08:10:45.372Z,40.11
2019-04-25T08:13:24.602Z,39.22
2019-04-25T08:15:53.851Z,39.73
2019-04-25T08:18:25.478Z,39.64
2019-04-25T08:20:54.570Z,39.83
2019-04-25T08:23:21.990Z,39.67
2019-04-25T08:25:49.350Z,39.95
2019-04-25T08:30:49.824Z,39.85
2019-04-25T08:33:17.978Z,40.13
2019-04-25T08:38:14.772Z,39.51
2019-04-25T08:40:43.928Z,38.49
2019-04-25T08:43:10.258Z,39.70
2019-04-25T08:45:41.950Z,39.88
2019-04-25T08:48:10.202Z,40.14
2019-04-25T08:50:39.772Z,39.43
2019-04-25T08:53:04.597Z,40.43
2019-04-25T08:55:38.317Z,40.59
2019-04-25T08:58:04.386Z,40.47
2019-04-25T09:00:31.694Z,40.28
2019-04-25T09:02:57.242Z,39.99
2019-04-25T09:05:24.162Z,39.75
2019-04-25T09:07:49.968Z,40.40
2019-04-25T09:10:16.305Z,40.57
2019-04-25T09:12:44.236Z,39.77
2019-04-25T09:15:09.096Z,40.45
2019-04-25T09:17:35.929Z,40.69
2019-04-25T09:20:01.847Z,39.94
2019-04-25T09:22:28.145Z,39.86
2019-04-25T09:24:54.504Z,40.91
2019-04-25T09:27:20.886Z,39.94
2019-04-25T09:29:47.510Z,41.18
2019-04-25T09:32:13.825Z,41.14
2019-04-25T09:34:40.047Z,41.21
2019-04-25T09:37:06.397Z,41.18
2019-04-25T09:39:33.732Z,41.18
2019-04-25T09:44:25.434Z,41.15
2019-04-25T09:46:53.595Z,40.32
2019-04-25T09:49:18.130Z,41.29
2019-04-25T09:51:45.725Z,41.14
2019-04-25T09:54:10.793Z,41.47
2019-04-25T09:56:37.129Z,41.39
2019-04-25T09:59:03.760Z,41.48
2019-04-25T10:01:29.835Z,41.64
2019-04-25T10:06:23.376Z,41.87
2019-04-25T10:08:48.850Z,41.68
2019-04-25T10:11:15.278Z,41.67
2019-04-25T10:13:41.873Z,41.76
2019-04-25T10:16:08.023Z,41.97
2019-04-25T10:18:34.352Z,41.99
2019-04-25T10:21:00.680Z,42.10
2019-04-25T10:23:27.025Z,41.79
2019-04-25T10:28:19.697Z,42.19
2019-04-25T10:30:46.882Z,42.10
2019-04-25T10:33:14.110Z,42.28
2019-04-25T10:35:48.361Z,42.03
2019-04-25T10:38:05.025Z,42.01
2019-04-25T10:40:31.407Z,41.92
2019-04-25T10:42:57.707Z,42.11
2019-04-25T10:45:26.003Z,41.90
2019-04-25T10:47:50.409Z,41.91
2019-04-25T10:50:16.769Z,41.99
2019-04-25T10:52:45.764Z,42.20
2019-04-25T10:55:09.474Z,42.33
2019-04-25T10:57:35.822Z,42.32
2019-04-25T11:00:07.481Z,42.34
2019-04-25T11:02:28.656Z,42.28
2019-04-25T11:04:55.058Z,42.30
2019-04-25T11:07:21.395Z,42.49
2019-04-25T11:09:48.049Z,42.39
2019-04-25T11:12:14.114Z,41.80
2019-04-25T11:14:40.934Z,42.07
2019-04-25T11:17:06.816Z,42.20
2019-04-25T11:19:34.065Z,42.55
2019-04-25T11:21:59.570Z,42.66
2019-04-25T11:24:25.925Z,42.51
2019-04-25T11:26:54.161Z,42.92
2019-04-25T11:29:18.668Z,42.76
2019-04-25T11:31:45.926Z,42.84
2019-04-25T11:34:11.428Z,42.90
2019-04-25T11:36:37.761Z,43.07
2019-04-25T11:39:04.213Z,43.11
2019-04-25T11:41:30.426Z,43.14
2019-04-25T11:43:56.865Z,42.62
2019-04-25T11:46:24.166Z,42.89
2019-04-25T11:48:50.433Z,43.04
2019-04-25T11:51:15.898Z,43.08
2019-04-25T11:53:44.045Z,43.38
2019-04-25T11:56:08.712Z,43.15
2019-04-25T11:58:35.057Z,43.32
2019-04-25T12:01:01.426Z,43.32
2019-04-25T12:03:27.728Z,43.22
2019-04-25T12:05:54.202Z,43.30
2019-04-25T12:08:20.517Z,43.46
2019-04-25T12:10:47.853Z,43.31
2019-04-25T12:13:13.658Z,43.48
2019-04-25T12:15:39.753Z,43.32
2019-04-25T12:18:06.091Z,43.78
2019-04-25T12:20:34.080Z,43.35
2019-04-25T12:23:08.342Z,43.84
2019-04-25T12:25:27.788Z,43.58
2019-04-25T12:27:54.756Z,44.11
2019-04-25T12:30:20.521Z,43.93
2019-04-25T12:32:47.862Z,44.44
2019-04-25T12:35:14.223Z,44.27
2019-04-25T12:37:39.627Z,44.21
2019-04-25T12:40:06.125Z,44.22
2019-04-25T12:42:32.332Z,44.01
2019-04-25T12:44:58.750Z,44.17
2019-04-25T12:47:25.089Z,44.08
2019-04-25T12:49:51.479Z,43.94
2019-04-25T12:52:17.863Z,44.16
2019-04-25T12:54:44.225Z,44.56
2019-04-25T12:57:10.567Z,44.22
2019-04-25T13:02:04.587Z,44.25
2019-04-25T13:04:29.780Z,43.87
2019-04-25T13:06:56.150Z,44.25
2019-04-25T13:09:22.510Z,43.16
2019-04-25T13:11:48.911Z,43.47
2019-04-25T13:14:15.811Z,43.63
2019-04-25T13:16:41.607Z,43.81
2019-04-25T13:19:14.801Z,44.01
2019-04-25T13:21:34.336Z,43.95
2019-04-25T13:24:00.782Z,44.25
2019-04-25T13:26:27.110Z,44.07
2019-04-25T13:28:54.116Z,44.39
2019-04-25T13:31:19.809Z,44.18
2019-04-25T13:33:46.227Z,43.85
2019-04-25T13:36:12.532Z,44.12
2019-04-25T13:38:38.930Z,44.42
2019-04-25T13:41:05.273Z,44.00
2019-04-25T13:43:31.648Z,43.99
2019-04-25T13:45:58.047Z,44.11
2019-04-25T13:48:26.575Z,43.83
2019-04-25T13:50:50.827Z,43.95
2019-04-25T13:53:17.130Z,43.70
2019-04-25T13:55:43.536Z,43.27
2019-04-25T13:58:14.352Z,43.29
2019-04-25T14:00:40.076Z,43.71
2019-04-25T14:03:06.478Z,43.77
2019-04-25T14:05:34.006Z,43.69
2019-04-25T14:07:59.169Z,43.97
2019-04-25T14:10:26.483Z,43.83
2019-04-25T14:12:53.483Z,44.08
2019-04-25T14:15:18.282Z,43.77
2019-04-25T14:17:44.820Z,43.58
2019-04-25T14:20:11.013Z,43.89
2019-04-25T14:22:37.404Z,43.75
2019-04-25T14:25:04.027Z,43.86
2019-04-25T14:27:30.256Z,43.80
2019-04-25T14:29:56.597Z,43.68
2019-04-25T14:32:26.170Z,43.78
2019-04-25T14:34:49.411Z,43.67
2019-04-25T14:37:15.793Z,43.57
2019-04-25T14:39:42.148Z,43.72
2019-04-25T14:42:08.575Z,43.61
2019-04-25T14:44:34.927Z,43.71
2019-04-25T14:47:01.283Z,43.79
2019-04-25T14:49:28.298Z,43.62
2019-04-25T14:51:54.117Z,43.51
2019-04-25T14:54:20.453Z,43.45
2019-04-25T14:56:47.001Z,43.65
2019-04-25T14:59:13.417Z,43.63
2019-04-25T15:01:44.827Z,43.59
2019-04-25T15:04:06.224Z,43.62
2019-04-25T15:06:32.628Z,43.63
2019-04-25T15:08:59.031Z,43.44
2019-04-25T15:11:25.443Z,43.44
2019-04-25T15:13:51.823Z,43.45
2019-04-25T15:16:18.177Z,43.54
2019-04-25T15:18:46.826Z,43.54
2019-04-25T15:21:10.997Z,43.65
2019-04-25T15:26:03.708Z,43.67
2019-04-25T15:28:30.093Z,44.18
2019-04-25T15:30:56.623Z,44.39
2019-04-25T15:33:24.149Z,44.41
2019-04-25T15:35:49.230Z,44.43
2019-04-25T15:38:15.715Z,44.59
2019-04-25T15:40:42.052Z,44.73
2019-04-25T15:43:08.399Z,44.73
2019-04-25T15:45:34.743Z,44.66
2019-04-25T15:48:01.130Z,44.98
2019-04-25T15:50:27.778Z,45.12
2019-04-25T15:52:53.843Z,45.20
2019-04-25T15:55:20.235Z,45.05
2019-04-25T15:57:46.587Z,45.59
2019-04-25T16:00:12.947Z,45.15
2019-04-25T16:02:39.300Z,45.01
2019-04-25T16:05:05.681Z,45.30
2019-04-25T16:07:32.031Z,45.18
2019-04-25T16:09:58.421Z,45.01
2019-04-25T16:12:24.756Z,45.09
2019-04-25T16:14:51.169Z,44.73
2019-04-25T16:17:17.471Z,44.55
2019-04-25T16:22:10.290Z,44.16
2019-04-25T16:24:36.733Z,43.95
2019-04-25T16:27:05.400Z,44.11
2019-04-25T16:29:31.730Z,44.26
2019-04-25T16:31:58.062Z,44.47
2019-04-25T16:34:24.493Z,44.36
2019-04-25T16:36:50.787Z,44.39
2019-04-25T16:39:17.135Z,44.32
2019-04-25T16:41:43.882Z,44.01
2019-04-25T16:44:09.889Z,43.87
2019-04-25T16:46:37.294Z,43.90
2019-04-25T16:49:02.606Z,43.86
2019-04-25T16:51:29.305Z,44.17
2019-04-25T16:53:55.372Z,44.04
2019-04-25T16:56:21.714Z,44.28
2019-04-25T16:58:48.051Z,44.12
2019-04-25T17:01:14.404Z,44.25
2019-04-25T17:03:41.394Z,44.22
2019-04-25T17:06:07.137Z,44.54
2019-04-25T17:08:33.523Z,44.93
2019-04-25T17:10:59.875Z,45.03
2019-04-25T17:13:26.270Z,45.32
2019-04-25T17:15:52.726Z,44.83
2019-04-25T17:18:19.109Z,44.88
2019-04-25T17:20:45.415Z,44.83
2019-04-25T17:23:11.737Z,44.82
2019-04-25T17:25:38.063Z,44.89
2019-04-25T17:28:04.455Z,44.67
2019-04-25T17:30:31.358Z,44.26
2019-04-25T17:32:57.209Z,44.00
2019-04-25T17:35:23.542Z,44.07
2019-04-25T17:40:16.237Z,43.82
2019-04-25T17:42:42.672Z,44.00
2019-04-25T17:45:09.016Z,43.65
2019-04-25T17:47:36.485Z,43.55
2019-04-25T17:50:01.812Z,43.46
2019-04-25T17:52:28.287Z,43.60
2019-04-25T17:54:54.617Z,43.57
2019-04-25T17:57:21.056Z,43.26
2019-04-25T17:59:47.413Z,43.14
2019-04-25T18:02:13.786Z,43.15
2019-04-25T18:04:40.290Z,43.31
2019-04-25T18:07:06.445Z,43.57
2019-04-25T18:09:32.816Z,43.27
2019-04-25T18:11:59.184Z,43.56
2019-04-25T18:14:25.697Z,43.66
2019-04-25T18:16:52.055Z,43.43
2019-04-25T18:19:18.401Z,43.48
2019-04-25T18:21:44.975Z,43.56
2019-04-25T18:24:11.102Z,43.41
2019-04-25T18:26:37.433Z,43.46
2019-04-25T18:29:04.163Z,43.19
2019-04-25T18:31:30.497Z,43.07
2019-04-25T18:33:56.832Z,43.20
2019-04-25T18:36:23.182Z,43.20
2019-04-25T18:38:49.512Z,43.15
2019-04-25T18:41:15.870Z,43.11
2019-04-25T18:43:42.673Z,42.84
2019-04-25T18:46:08.619Z,42.12
2019-04-25T18:48:35.018Z,42.57
2019-04-25T18:51:01.412Z,42.70
2019-04-25T18:53:27.708Z,42.30
2019-04-25T18:55:54.082Z,42.19
2019-04-25T18:58:20.463Z,41.97
2019-04-25T19:00:47.827Z,42.08
2019-04-25T19:03:22.282Z,42.22
2019-04-25T19:05:39.829Z,42.22
2019-04-25T19:08:05.930Z,42.34
2019-04-25T19:10:32.347Z,41.99
2019-04-25T19:13:11.819Z,42.02
2019-04-25T19:15:25.069Z,42.17
2019-04-25T19:17:52.151Z,42.27
2019-04-25T19:20:17.849Z,42.15
2019-04-25T19:22:44.194Z,42.00
2019-04-25T19:25:10.611Z,42.02
2019-04-25T19:27:36.959Z,41.96
2019-04-25T19:30:03.291Z,42.10
2019-04-25T19:32:29.703Z,41.89
2019-04-25T19:34:56.057Z,41.77
2019-04-25T19:37:22.404Z,41.70
2019-04-25T19:39:49.417Z,41.78
2019-04-25T19:42:15.133Z,41.85
2019-04-25T19:44:42.255Z,41.80
2019-04-25T19:47:07.833Z,41.62
2019-04-25T19:49:34.151Z,41.49
2019-04-25T19:54:26.933Z,41.34
2019-04-25T19:56:53.381Z,41.29
2019-04-25T19:59:19.798Z,41.30
2019-04-25T20:01:46.159Z,41.47
2019-04-25T20:04:12.489Z,41.42
2019-04-25T20:06:38.846Z,41.39
2019-04-25T20:09:05.214Z,41.50
2019-04-25T20:11:31.554Z,41.30
2019-04-25T20:13:57.874Z,41.36
2019-04-25T20:16:24.259Z,41.40
2019-04-25T20:18:51.795Z,41.47
2019-04-25T20:21:16.977Z,41.31
2019-04-25T20:23:43.624Z,41.34
2019-04-25T20:26:09.691Z,41.50
2019-04-25T20:28:36.033Z,41.42
2019-04-25T20:31:02.386Z,41.12
2019-04-25T20:33:28.734Z,41.34
2019-04-25T20:35:55.314Z,41.32
2019-04-25T20:38:21.422Z,41.37
2019-04-25T20:40:47.766Z,41.32
2019-04-25T20:43:14.163Z,41.46
2019-04-25T20:45:40.487Z,41.55
2019-04-25T20:48:06.812Z,41.61
2019-04-25T20:50:33.141Z,41.64
2019-04-25T20:52:59.557Z,41.64
2019-04-25T20:55:25.879Z,41.71
2019-04-25T20:57:53.226Z,41.73
2019-04-25T21:00:18.537Z,41.79
2019-04-25T21:02:44.948Z,41.87
2019-04-25T21:05:11.280Z,41.78
2019-04-25T21:07:37.667Z,41.68
2019-04-25T21:10:04.025Z,41.74
2019-04-25T21:12:30.348Z,41.72
2019-04-25T21:14:56.668Z,41.95
2019-04-25T21:17:23.016Z,41.65
2019-04-25T21:19:51.298Z,41.76
2019-04-25T21:24:42.542Z,41.79
2019-04-25T21:27:08.843Z,41.81
2019-04-25T21:29:35.221Z,41.76
2019-04-25T21:32:01.562Z,41.82
2019-04-25T21:34:28.820Z,41.88
2019-04-25T21:36:54.270Z,41.93
2019-04-25T21:39:20.644Z,41.93
2019-04-25T21:41:47.068Z,42.10
2019-04-25T21:46:39.803Z,42.02
2019-04-25T21:49:06.090Z,42.11
2019-04-25T21:51:32.436Z,42.08
2019-04-25T21:53:59.287Z,42.01
2019-04-25T21:56:25.116Z,42.11
2019-04-25T21:58:51.436Z,42.13
2019-04-25T22:01:17.782Z,42.02
2019-04-25T22:03:44.102Z,42.06
2019-04-25T22:06:10.452Z,42.13
2019-04-25T22:08:36.806Z,42.17
2019-04-25T22:11:03.346Z,42.07
2019-04-25T22:13:29.539Z,42.19
2019-04-25T22:15:56.158Z,42.22
2019-04-25T22:18:22.221Z,42.30
2019-04-25T22:20:48.576Z,42.23
2019-04-25T22:23:14.927Z,42.29
2019-04-25T22:25:41.296Z,42.23
2019-04-25T22:28:07.646Z,42.26
2019-04-25T22:30:33.982Z,42.37
2019-04-25T22:33:01.479Z,42.23
2019-04-25T22:35:26.688Z,42.31
2019-04-25T22:37:53.052Z,42.28
2019-04-25T22:40:19.402Z,42.17
2019-04-25T22:42:45.782Z,42.35
2019-04-25T22:45:12.589Z,42.29
2019-04-25T22:47:38.475Z,42.46
2019-04-25T22:52:31.137Z,42.41
2019-04-25T22:54:57.590Z,42.36
2019-04-25T22:57:23.973Z,42.35
2019-04-25T22:59:50.287Z,42.37
2019-04-25T23:02:16.609Z,42.29
2019-04-25T23:04:42.966Z,42.46
2019-04-25T23:07:10.077Z,42.39
2019-04-25T23:09:35.798Z,42.33
2019-04-25T23:12:02.163Z,42.39
2019-04-25T23:14:28.528Z,42.38
2019-04-25T23:16:56.882Z,42.41
2019-04-25T23:19:23.186Z,42.37
2019-04-25T23:21:49.525Z,42.49
2019-04-25T23:24:15.868Z,42.43
2019-04-25T23:26:42.260Z,42.36
2019-04-25T23:29:08.595Z,42.36
2019-04-25T23:31:34.941Z,42.37
2019-04-25T23:34:01.270Z,42.27
2019-04-25T23:36:27.644Z,42.57
2019-04-25T23:38:54.009Z,42.57
2019-04-25T23:41:20.412Z,42.41
2019-04-25T23:43:46.711Z,42.44
2019-04-25T23:46:13.189Z,42.48
2019-04-25T23:48:39.433Z,42.51
2019-04-25T23:51:06.373Z,42.47
2019-04-25T23:53:32.163Z,42.41
2019-04-25T23:58:24.860Z,42.33
